createdAt,value
2023-08-12T00:01:13.167Z,92016.94
2023-08-12T00:04:17.141Z,92018.38
2023-08-12T00:07:20.342Z,92029.50
2023-08-12T00:10:23.581Z,92020.09
2023-08-12T00:13:26.866Z,92024.53
2023-08-12T00:16:30.181Z,92023.81
2023-08-12T00:19:33.548Z,92027.41
2023-08-12T00:22:36.995Z,92033.75
2023-08-12T00:25:40.224Z,92023.88
2023-08-12T00:28:43.401Z,92017.06
2023-08-12T00:31:46.635Z,92016.53
2023-08-12T00:34:51.708Z,92012.13
2023-08-12T00:37:54.967Z,92012.31
2023-08-12T00:40:59.884Z,92017.41
2023-08-12T00:44:03.154Z,92022.00
2023-08-12T00:47:07.007Z,92014.41
2023-08-12T00:50:11.886Z,92009.44
2023-08-12T00:53:16.696Z,92015.66
2023-08-12T00:56:20.103Z,92016.78
2023-08-12T00:59:25.143Z,92017.19
2023-08-12T01:02:28.585Z,92016.16
2023-08-12T01:05:32.905Z,92017.38
2023-08-12T01:08:37.073Z,92018.00
2023-08-12T01:12:03.907Z,92023.78
2023-08-12T01:15:11.845Z,92018.66
2023-08-12T01:18:16.454Z,92008.03
2023-08-12T01:21:23.972Z,92017.78
2023-08-12T01:24:27.243Z,92020.34
2023-08-12T01:27:30.466Z,92013.41
2023-08-12T01:30:36.438Z,92008.78
2023-08-12T01:33:48.505Z,92017.47
2023-08-12T01:36:57.879Z,92011.16
2023-08-12T01:40:04.704Z,92008.00
2023-08-12T01:43:10.058Z,92008.84
2023-08-12T01:46:13.526Z,92008.75
2023-08-12T01:49:16.946Z,92010.75
2023-08-12T01:52:20.235Z,92001.03
2023-08-12T01:55:23.511Z,92001.94
2023-08-12T01:58:28.639Z,92006.94
2023-08-12T02:01:32.389Z,91994.38
2023-08-12T02:04:35.924Z,91991.47
2023-08-12T02:07:39.263Z,91991.03
2023-08-12T02:10:42.581Z,91988.91
2023-08-12T02:13:45.931Z,91989.06
2023-08-12T02:16:49.309Z,91990.72
2023-08-12T02:19:52.675Z,91984.31
2023-08-12T02:23:01.982Z,91989.63
2023-08-12T02:26:08.755Z,91992.88
2023-08-12T02:29:12.097Z,91987.03
2023-08-12T02:32:15.420Z,91986.00
2023-08-12T02:35:23.804Z,91989.16
2023-08-12T02:38:27.079Z,91986.94
2023-08-12T02:41:30.368Z,91985.22
2023-08-12T02:44:33.647Z,91976.41
2023-08-12T02:47:37.400Z,91976.44
2023-08-12T02:50:41.351Z,91977.50
2023-08-12T02:53:44.859Z,91968.81
2023-08-12T02:56:48.143Z,91965.09
2023-08-12T02:59:51.560Z,91964.47
2023-08-12T03:02:59.236Z,91961.22
2023-08-12T03:06:02.712Z,91962.94
2023-08-12T03:09:07.441Z,91962.34
2023-08-12T03:12:11.367Z,91964.47
2023-08-12T03:15:14.812Z,91960.09
2023-08-12T03:18:18.165Z,91951.28
2023-08-12T03:21:22.625Z,91952.41
2023-08-12T03:24:27.914Z,91949.16
2023-08-12T03:27:31.263Z,91949.72
2023-08-12T03:30:34.795Z,91945.28
2023-08-12T03:33:38.677Z,91950.66
2023-08-12T03:36:43.416Z,91954.75
2023-08-12T03:39:47.141Z,91943.22
2023-08-12T03:42:50.446Z,91944.25
2023-08-12T03:45:57.214Z,91944.03
2023-08-12T03:49:00.630Z,91951.94
2023-08-12T03:52:04.131Z,91945.94
2023-08-12T03:55:08.398Z,91939.03
2023-08-12T03:58:11.799Z,91938.31
2023-08-12T04:01:15.181Z,91951.34
2023-08-12T04:04:18.651Z,91935.94
2023-08-12T04:07:22.005Z,91938.41
2023-08-12T04:10:25.466Z,91936.16
2023-08-12T04:13:30.020Z,91934.78
2023-08-12T04:16:33.743Z,91927.50
2023-08-12T04:19:37.104Z,91923.41
2023-08-12T04:22:40.529Z,91926.78
2023-08-12T04:25:49.321Z,91926.22
2023-08-12T04:28:53.527Z,91918.59
2023-08-12T04:31:57.343Z,91925.50
2023-08-12T04:35:00.753Z,91919.91
2023-08-12T04:38:04.903Z,91921.06
2023-08-12T04:41:12.389Z,91907.31
2023-08-12T04:44:16.082Z,91911.97
2023-08-12T04:47:22.504Z,91910.59
2023-08-12T04:50:26.057Z,91902.59
2023-08-12T04:53:29.463Z,91905.88
2023-08-12T04:56:34.341Z,91907.03
2023-08-12T04:59:39.144Z,91901.81
2023-08-12T05:02:42.600Z,91910.72
2023-08-12T05:05:46.105Z,91901.69
2023-08-12T05:08:49.855Z,91908.47
2023-08-12T05:11:53.333Z,91913.25
2023-08-12T05:14:56.704Z,91911.72
2023-08-12T05:18:00.119Z,91902.78
2023-08-12T05:21:05.088Z,91908.22
2023-08-12T05:24:09.003Z,91901.63
2023-08-12T05:27:12.578Z,91909.72
2023-08-12T05:30:16.043Z,91901.34
2023-08-12T05:33:19.394Z,91905.69
2023-08-12T05:36:22.688Z,91906.50
2023-08-12T05:39:26.080Z,91903.94
2023-08-12T05:42:29.522Z,91914.16
2023-08-12T05:45:32.896Z,91915.63
2023-08-12T05:48:36.209Z,91911.31
2023-08-12T05:51:40.427Z,91907.72
2023-08-12T05:54:43.409Z,91908.88
2023-08-12T05:57:46.778Z,91916.19
2023-08-12T06:00:52.852Z,91913.13
2023-08-12T06:03:56.108Z,91914.69
2023-08-12T06:06:59.466Z,91914.69
2023-08-12T06:10:03.203Z,91915.22
2023-08-12T06:13:06.589Z,91912.97
2023-08-12T06:16:10.763Z,91906.25
2023-08-12T06:19:13.714Z,91907.38
2023-08-12T06:22:17.126Z,91903.06
2023-08-12T06:25:21.180Z,91895.19
2023-08-12T06:28:24.600Z,91897.16
2023-08-12T06:31:27.905Z,91899.81
2023-08-12T06:34:31.197Z,91902.31
2023-08-12T06:37:34.831Z,91900.97
2023-08-12T06:40:39.850Z,91898.78
2023-08-12T06:43:43.186Z,91889.63
2023-08-12T06:46:46.481Z,91895.25
2023-08-12T06:49:49.905Z,91891.31
2023-08-12T06:52:53.419Z,91885.44
2023-08-12T06:55:56.747Z,91893.53
2023-08-12T06:59:00.733Z,91893.66
2023-08-12T07:02:05.002Z,91900.31
2023-08-12T07:05:08.212Z,91906.19
2023-08-12T07:08:11.726Z,91903.56
2023-08-12T07:11:15.001Z,91900.13
2023-08-12T07:14:18.376Z,91915.69
2023-08-12T07:17:21.613Z,91909.94
2023-08-12T07:20:25.308Z,91923.50
2023-08-12T07:23:28.952Z,91923.75
2023-08-12T07:26:32.630Z,91931.19
2023-08-12T07:29:35.916Z,91932.66
2023-08-12T07:32:40.087Z,91930.44
2023-08-12T07:35:43.611Z,91922.38
2023-08-12T07:38:46.857Z,91918.25
2023-08-12T07:41:50.135Z,91920.56
2023-08-12T07:44:53.421Z,91924.97
2023-08-12T07:47:56.827Z,91938.50
2023-08-12T07:51:00.653Z,91932.97
2023-08-12T07:54:03.949Z,91928.28
2023-08-12T07:57:07.290Z,91936.56
2023-08-12T08:00:11.725Z,91933.41
2023-08-12T08:03:15.153Z,91929.03
2023-08-12T08:06:21.730Z,91926.13
2023-08-12T08:09:25.256Z,91917.91
2023-08-12T08:12:28.746Z,91921.56
2023-08-12T08:15:32.599Z,91923.34
2023-08-12T08:18:42.321Z,91927.81
2023-08-12T08:21:46.677Z,91930.00
2023-08-12T08:24:50.050Z,91917.28
2023-08-12T08:27:53.418Z,91921.22
2023-08-12T08:30:56.650Z,91923.91
2023-08-12T08:33:59.944Z,91918.69
2023-08-12T08:37:03.307Z,91918.44
2023-08-12T08:40:07.913Z,91901.81
2023-08-12T08:43:14.540Z,91910.63
2023-08-12T08:46:19.109Z,91911.06
2023-08-12T08:49:23.647Z,91908.38
2023-08-12T08:52:27.710Z,91905.09
2023-08-12T08:55:31.130Z,91896.41
2023-08-12T08:58:34.460Z,91898.53
2023-08-12T09:01:38.692Z,91896.19
2023-08-12T09:04:41.778Z,91899.72
2023-08-12T09:07:46.688Z,91894.31
2023-08-12T09:10:50.704Z,91888.41
2023-08-12T09:13:55.033Z,91900.47
2023-08-12T09:16:59.337Z,91902.19
2023-08-12T09:20:02.375Z,91894.72
2023-08-12T09:23:06.273Z,91903.66
2023-08-12T09:26:18.599Z,91901.66
2023-08-12T09:29:26.426Z,91913.97
2023-08-12T09:32:30.303Z,91913.13
2023-08-12T09:35:39.163Z,91906.19
2023-08-12T09:38:42.702Z,91913.66
2023-08-12T09:41:46.218Z,91919.94
2023-08-12T09:44:49.575Z,91918.16
2023-08-12T09:47:53.503Z,91923.78
2023-08-12T09:50:56.924Z,91925.06
2023-08-12T09:54:00.361Z,91923.38
2023-08-12T09:57:05.407Z,91921.81
2023-08-12T10:00:18.661Z,91920.47
2023-08-12T10:03:23.183Z,91917.16
2023-08-12T10:06:26.876Z,91926.63
2023-08-12T10:09:30.469Z,91938.25
2023-08-12T10:12:34.830Z,91927.53
2023-08-12T10:15:38.610Z,91936.00
2023-08-12T10:18:42.879Z,91934.22
2023-08-12T10:21:47.242Z,91938.03
2023-08-12T10:24:51.596Z,91940.22
2023-08-12T10:27:54.835Z,91942.47
2023-08-12T10:30:58.411Z,91941.06
2023-08-12T10:34:01.942Z,91937.75
2023-08-12T10:37:05.415Z,91941.84
2023-08-12T10:40:22.655Z,91945.97
2023-08-12T10:43:28.596Z,91944.06
2023-08-12T10:46:37.507Z,91935.56
2023-08-12T10:49:45.124Z,91937.91
2023-08-12T10:52:49.419Z,91933.03
2023-08-12T10:55:56.476Z,91934.00
2023-08-12T10:58:59.840Z,91938.34
2023-08-12T11:02:15.226Z,91929.84
2023-08-12T11:05:22.162Z,91931.56
2023-08-12T11:08:29.377Z,91926.06
2023-08-12T11:11:32.785Z,91923.94
2023-08-12T11:14:50.144Z,91906.91
2023-08-12T11:17:54.455Z,91922.91
2023-08-12T11:20:58.272Z,91915.66
2023-08-12T11:24:04.642Z,91920.94
2023-08-12T11:27:11.361Z,91925.47
2023-08-12T11:30:17.386Z,91932.59
2023-08-12T11:33:21.885Z,91936.09
2023-08-12T11:36:24.881Z,91936.22
2023-08-12T11:39:28.605Z,91936.56
2023-08-12T11:42:32.735Z,91933.72
2023-08-12T11:45:35.992Z,91933.47
2023-08-12T11:48:39.202Z,91931.72
2023-08-12T11:51:44.445Z,91931.91
2023-08-12T11:54:48.011Z,91933.47
2023-08-12T11:57:53.054Z,91937.31
2023-08-12T12:00:56.639Z,91938.34
2023-08-12T12:04:05.511Z,91940.41
2023-08-12T12:07:23.381Z,91940.56
2023-08-12T12:10:35.139Z,91947.81
2023-08-12T12:13:39.570Z,91960.50
2023-08-12T12:16:44.273Z,91961.72
2023-08-12T12:19:47.252Z,91965.28
2023-08-12T12:22:51.095Z,91961.38
2023-08-12T12:26:05.442Z,91958.19
2023-08-12T12:29:10.795Z,91976.66
2023-08-12T12:32:14.478Z,91980.56
2023-08-12T12:35:18.057Z,91979.56
2023-08-12T12:38:21.332Z,91987.31
2023-08-12T12:41:26.386Z,91986.66
2023-08-12T12:44:30.269Z,91992.72
2023-08-12T12:47:33.589Z,91980.56
2023-08-12T12:50:36.970Z,91992.09
2023-08-12T12:53:40.560Z,91990.50
2023-08-12T12:56:44.028Z,91990.31
2023-08-12T12:59:47.345Z,91991.53
2023-08-12T13:02:50.645Z,91991.41
2023-08-12T13:05:54.465Z,91994.06
2023-08-12T13:08:59.663Z,91993.72
2023-08-12T13:12:02.906Z,91989.91
2023-08-12T13:15:06.634Z,91992.06
2023-08-12T13:18:10.373Z,91999.00
2023-08-12T13:21:13.982Z,91999.00
2023-08-12T13:24:17.673Z,91997.59
2023-08-12T13:27:21.449Z,92000.38
2023-08-12T13:30:24.946Z,91995.28
2023-08-12T13:33:28.232Z,91990.84
2023-08-12T13:36:32.339Z,91999.69
2023-08-12T13:39:35.654Z,91996.84
2023-08-12T13:42:38.992Z,92002.06
2023-08-12T13:45:42.279Z,92002.94
2023-08-12T13:48:45.652Z,92004.94
2023-08-12T13:51:49.836Z,92003.78
2023-08-12T13:54:53.471Z,91989.88
2023-08-12T13:57:56.816Z,91987.84
2023-08-12T14:01:00.363Z,91980.50
2023-08-12T14:04:03.611Z,91977.22
2023-08-12T14:07:07.303Z,91985.94
2023-08-12T14:10:10.785Z,91980.63
2023-08-12T14:13:14.024Z,91983.41
2023-08-12T14:16:17.379Z,91985.41
2023-08-12T14:19:20.868Z,91986.16
2023-08-12T14:22:26.860Z,91974.91
2023-08-12T14:25:30.593Z,91971.59
2023-08-12T14:28:33.976Z,91973.88
2023-08-12T14:31:37.306Z,91983.44
2023-08-12T14:34:40.776Z,91978.47
2023-08-12T14:37:44.066Z,91987.59
2023-08-12T14:40:50.603Z,91986.84
2023-08-12T14:43:53.883Z,91986.34
2023-08-12T14:46:57.170Z,91989.97
2023-08-12T14:50:00.471Z,91987.00
2023-08-12T14:53:03.736Z,91985.44
2023-08-12T14:56:07.128Z,91979.50
2023-08-12T14:59:10.366Z,91982.38
2023-08-12T15:02:13.729Z,91979.31
2023-08-12T15:05:17.598Z,91988.97
2023-08-12T15:08:20.834Z,91981.25
2023-08-12T15:11:24.516Z,91991.94
2023-08-12T15:14:27.847Z,91985.59
2023-08-12T15:17:31.209Z,91980.50
2023-08-12T15:20:34.728Z,91982.13
2023-08-12T15:23:38.279Z,91978.19
2023-08-12T15:26:41.739Z,91984.69
2023-08-12T15:29:45.375Z,91982.03
2023-08-12T15:32:48.892Z,91987.97
2023-08-12T15:35:52.296Z,91989.34
2023-08-12T15:38:55.873Z,91981.47
2023-08-12T15:41:59.109Z,91982.22
2023-08-12T15:45:04.690Z,91988.16
2023-08-12T15:48:08.988Z,91991.44
2023-08-12T15:51:12.334Z,91983.25
2023-08-12T15:54:15.665Z,91981.56
2023-08-12T15:57:18.902Z,91982.19
2023-08-12T16:00:22.254Z,91982.28
2023-08-12T16:03:25.633Z,91975.63
2023-08-12T16:06:30.217Z,91978.06
2023-08-12T16:09:33.563Z,91981.97
2023-08-12T16:12:37.407Z,91979.22
2023-08-12T16:15:40.681Z,91989.19
2023-08-12T16:18:44.052Z,91988.56
2023-08-12T16:21:47.391Z,91990.47
2023-08-12T16:24:50.728Z,91990.47
2023-08-12T16:27:54.226Z,91984.00
2023-08-12T16:30:57.516Z,91983.50
2023-08-12T16:34:00.973Z,91984.44
2023-08-12T16:37:20.230Z,91986.28
2023-08-12T16:40:25.508Z,91984.44
2023-08-12T16:43:28.780Z,91980.00
2023-08-12T16:46:32.094Z,91981.59
2023-08-12T16:49:35.699Z,91987.34
2023-08-12T16:52:38.991Z,91982.69
2023-08-12T16:55:42.312Z,91983.72
2023-08-12T16:58:45.808Z,91988.41
2023-08-12T17:01:49.321Z,91986.28
2023-08-12T17:04:52.643Z,91987.97
2023-08-12T17:07:55.948Z,91986.25
2023-08-12T17:10:59.351Z,91981.81
2023-08-12T17:14:02.742Z,91976.75
2023-08-12T17:17:05.998Z,91988.41
2023-08-12T17:20:09.580Z,91982.25
2023-08-12T17:23:12.915Z,91984.69
2023-08-12T17:26:16.286Z,91983.94
2023-08-12T17:29:20.663Z,91984.47
2023-08-12T17:32:23.948Z,91981.81
2023-08-12T17:35:27.378Z,91982.34
2023-08-12T17:38:30.812Z,91995.19
2023-08-12T17:41:34.056Z,91990.66
2023-08-12T17:44:37.310Z,91991.44
2023-08-12T17:47:40.546Z,91995.38
2023-08-12T17:50:43.875Z,91991.38
2023-08-12T17:53:48.542Z,91990.31
2023-08-12T17:56:51.928Z,91981.38
2023-08-12T17:59:55.136Z,91986.69
2023-08-12T18:02:58.381Z,91976.84
2023-08-12T18:06:02.875Z,91995.38
2023-08-12T18:09:08.965Z,91991.56
2023-08-12T18:12:13.042Z,91980.53
2023-08-12T18:15:16.442Z,91988.47
2023-08-12T18:18:19.731Z,91998.53
2023-08-12T18:21:23.060Z,91988.78
2023-08-12T18:24:26.322Z,91986.88
2023-08-12T18:27:29.672Z,91985.78
2023-08-12T18:30:34.493Z,91980.19
2023-08-12T18:33:37.910Z,91982.41
2023-08-12T18:36:41.224Z,91979.84
2023-08-12T18:39:44.466Z,91985.78
2023-08-12T18:42:47.710Z,91986.00
2023-08-12T18:45:50.993Z,91978.06
2023-08-12T18:48:54.250Z,91976.59
2023-08-12T18:51:57.459Z,91975.34
2023-08-12T18:55:01.200Z,91977.41
2023-08-12T18:58:04.479Z,91985.16
2023-08-12T19:01:07.849Z,91985.16
2023-08-12T19:04:12.553Z,91986.44
2023-08-12T19:07:15.507Z,91982.00
2023-08-12T19:10:18.733Z,91990.06
2023-08-12T19:13:22.097Z,91973.75
2023-08-12T19:16:25.384Z,91984.66
2023-08-12T19:19:28.705Z,91982.81
2023-08-12T19:22:32.103Z,91985.22
2023-08-12T19:25:35.335Z,91989.75
2023-08-12T19:28:38.791Z,91988.09
2023-08-12T19:31:42.131Z,91982.59
2023-08-12T19:34:45.997Z,91987.25
2023-08-12T19:37:50.407Z,91986.72
2023-08-12T19:40:53.782Z,91991.25
2023-08-12T19:43:59.684Z,91993.63
2023-08-12T19:47:03.036Z,91997.97
2023-08-12T19:50:09.399Z,91991.09
2023-08-12T19:53:12.653Z,91993.66
2023-08-12T19:56:16.004Z,91995.44
2023-08-12T19:59:19.227Z,91988.25
2023-08-12T20:02:36.572Z,91993.34
2023-08-12T20:05:41.751Z,91993.88
2023-08-12T20:08:45.016Z,91989.78
2023-08-12T20:11:48.977Z,91984.34
2023-08-12T20:14:52.158Z,91985.63
2023-08-12T20:17:55.488Z,91980.44
2023-08-12T20:20:59.335Z,91987.75
2023-08-12T20:24:02.529Z,91983.09
2023-08-12T20:27:05.756Z,91986.34
2023-08-12T20:30:09.617Z,91987.84
2023-08-12T20:33:12.851Z,91990.56
2023-08-12T20:36:16.613Z,92006.47
2023-08-12T20:39:20.545Z,92006.94
2023-08-12T20:42:24.635Z,92009.91
2023-08-12T20:45:28.065Z,92005.31
2023-08-12T20:48:31.433Z,92008.69
2023-08-12T20:51:34.749Z,92005.63
2023-08-12T20:54:38.028Z,92008.69
2023-08-12T20:57:41.276Z,92013.09
2023-08-12T21:00:44.517Z,92000.72
2023-08-12T21:03:47.998Z,92013.84
2023-08-12T21:06:57.093Z,92014.38
2023-08-12T21:10:00.358Z,92012.25
2023-08-12T21:13:03.623Z,92024.91
2023-08-12T21:16:06.981Z,92032.00
2023-08-12T21:19:10.244Z,92035.81
2023-08-12T21:22:15.017Z,92046.22
2023-08-12T21:25:20.415Z,92050.25
2023-08-12T21:28:23.826Z,92047.59
2023-08-12T21:31:27.120Z,92049.59
2023-08-12T21:34:30.814Z,92052.78
2023-08-12T21:37:34.039Z,92055.88
2023-08-12T21:40:37.288Z,92067.00
2023-08-12T21:43:40.522Z,92063.72
2023-08-12T21:46:43.769Z,92073.66
2023-08-12T21:49:47.291Z,92072.44
2023-08-12T21:52:50.606Z,92074.88
2023-08-12T21:55:53.959Z,92068.50
2023-08-12T21:58:57.199Z,92065.47
2023-08-12T22:02:04.009Z,92070.47
2023-08-12T22:05:07.387Z,92078.13
2023-08-12T22:08:10.653Z,92082.56
2023-08-12T22:11:13.995Z,92071.97
2023-08-12T22:14:17.318Z,92086.50
2023-08-12T22:17:20.614Z,92078.69
2023-08-12T22:20:24.154Z,92089.28
2023-08-12T22:23:27.424Z,92087.59
2023-08-12T22:26:30.845Z,92089.84
2023-08-12T22:29:34.294Z,92088.00
2023-08-12T22:32:37.641Z,92086.09
2023-08-12T22:35:40.970Z,92083.34
2023-08-12T22:38:44.322Z,92083.88
2023-08-12T22:41:47.565Z,92085.97
2023-08-12T22:44:50.883Z,92087.84
2023-08-12T22:47:54.111Z,92088.63
2023-08-12T22:50:57.361Z,92093.66
2023-08-12T22:54:01.432Z,92095.88
2023-08-12T22:57:04.815Z,92091.31
2023-08-12T23:00:08.685Z,92090.72
2023-08-12T23:03:12.331Z,92086.84
2023-08-12T23:06:15.631Z,92086.91
2023-08-12T23:09:19.065Z,92085.56
2023-08-12T23:12:23.964Z,92088.72
2023-08-12T23:15:28.205Z,92085.56
2023-08-12T23:18:32.702Z,92082.03
2023-08-12T23:21:37.156Z,92085.38
2023-08-12T23:24:41.615Z,92081.44
2023-08-12T23:27:45.330Z,92088.25
2023-08-12T23:30:49.267Z,92089.47
2023-08-12T23:33:52.856Z,92082.03
2023-08-12T23:36:56.604Z,92086.63
2023-08-12T23:40:00.657Z,92082.56
2023-08-12T23:43:04.702Z,92090.56
2023-08-12T23:46:08.054Z,92088.31
2023-08-12T23:49:11.364Z,92089.66
2023-08-12T23:52:15.693Z,92094.59
2023-08-12T23:55:19.196Z,92092.97
2023-08-12T23:58:22.535Z,92100.75
